Huvudsida
METAR-TAF:

METAR-TAF

Flygplatser :

Yanbu, Saudiarabien

latitud: 24-09N, longitud: 038-04E, höjd: 8 m

Aktuellt väderrapport

Denna rapport gjordes för 39 minuter sedan, klockan 19:00 UTC
Vind 5 kt från väst
Temperatur 23°C
Fuktighet 69%
Tryck 1010 hPa
Sikt 10 km eller mer
Inga moln under 1 500 m eller inga cumulonimbus

METAR: OEYN 281900Z 26005KT CAVOK 23/17 Q1010 NOSIG

Tid: 22:39 (19:39 UTC)

Väderprognos

Denna rapport gjordes för 8 timmar och 39 minuter sedan, klockan 11:00 UTC
Prognos gäller från 28 kl. 12 UTC till 29 kl. 18 UTC
Vind 12 kt från väst
Sikt 10 km eller mer
Inga moln under 1 500 m eller inga cumulonimbus
Blir
från 28 kl. 18 UTC till 28 kl. 20 UTC
Vind 3 kt varierande vindriktning

TAF: OEYN 281100Z 2812/2918 27012KT CAVOK BECMG 2818/2820 VRB03KT

Aktuella väderrapporter och prognoser från 4000 flygplatser (METAR- och TAF-rapporter).

De tillgängliga stationerna syns som gula och röda prickar på kartan.

För musen över prickarna för att se namnen på stationerna.

Klicka sedan för att få väderrapporter och prognoser.

För att ändra kartan: Klicka på de gröna knapparna med ett svart kors på för att zooma in; den gröna knappen med ett streck på för att zooma ut; eller på de gröna pilarna för angränsande kartor.


METAR-TAF: